createdAt,value
2023-03-18T00:01:11.513Z,6.61
2023-03-18T00:03:39.124Z,6.21
2023-03-18T00:06:12.291Z,6.39
2023-03-18T00:08:41.223Z,6.27
2023-03-18T00:11:10.199Z,6.52
2023-03-18T00:13:37.918Z,6.62
2023-03-18T00:16:07.613Z,6.65
2023-03-18T00:18:34.800Z,6.73
2023-03-18T00:21:02.152Z,7.00
2023-03-18T00:23:29.310Z,6.79
2023-03-18T00:25:58.297Z,6.91
2023-03-18T00:28:26.810Z,6.66
2023-03-18T00:30:55.031Z,6.64
2023-03-18T00:33:23.506Z,6.49
2023-03-18T00:35:51.145Z,6.00
2023-03-18T00:38:21.600Z,5.83
2023-03-18T00:41:11.538Z,5.88
2023-03-18T00:43:49.819Z,5.64
2023-03-18T00:46:23.266Z,5.63
2023-03-18T00:48:57.488Z,5.78
2023-03-18T00:51:37.206Z,5.76
2023-03-18T00:54:10.205Z,5.93
2023-03-18T00:56:40.204Z,5.94
2023-03-18T00:59:10.665Z,5.71
2023-03-18T01:01:39.782Z,5.89
2023-03-18T01:04:10.238Z,5.58
2023-03-18T01:06:38.664Z,5.62
2023-03-18T01:09:10.485Z,5.53
2023-03-18T01:11:45.119Z,5.48
2023-03-18T01:14:12.939Z,5.40
2023-03-18T01:16:41.670Z,5.60
2023-03-18T01:19:10.221Z,5.39
2023-03-18T01:21:38.329Z,5.62
2023-03-18T01:24:06.206Z,5.52
2023-03-18T01:26:33.195Z,5.37
2023-03-18T01:29:00.465Z,5.20
2023-03-18T01:31:28.786Z,5.06
2023-03-18T01:33:56.199Z,5.11
2023-03-18T01:36:23.291Z,4.94
2023-03-18T01:38:49.976Z,5.27
2023-03-18T01:41:17.464Z,5.09
2023-03-18T01:43:44.786Z,5.06
2023-03-18T01:46:35.264Z,4.79
2023-03-18T01:49:12.753Z,4.34
2023-03-18T01:51:43.700Z,4.30
2023-03-18T01:54:14.185Z,4.49
2023-03-18T01:56:42.544Z,4.42
2023-03-18T01:59:14.555Z,4.48
2023-03-18T02:01:58.694Z,4.14
2023-03-18T02:04:31.168Z,4.43
2023-03-18T02:07:00.206Z,4.69
2023-03-18T02:09:27.367Z,5.07
2023-03-18T02:14:24.337Z,4.59
2023-03-18T02:16:55.868Z,4.54
2023-03-18T02:19:37.259Z,6.05
2023-03-18T02:22:16.390Z,4.52
2023-03-18T02:24:54.238Z,4.28
2023-03-18T02:27:21.163Z,4.34
2023-03-18T02:29:49.725Z,4.26
2023-03-18T02:32:18.617Z,3.63
2023-03-18T02:34:46.114Z,4.00
2023-03-18T02:37:13.184Z,4.15
2023-03-18T02:39:40.332Z,4.15
2023-03-18T02:42:07.512Z,4.00
2023-03-18T02:44:40.979Z,4.14
2023-03-18T02:47:13.757Z,3.99
2023-03-18T02:49:41.673Z,3.86
2023-03-18T02:52:10.146Z,3.64
2023-03-18T02:54:37.617Z,3.73
2023-03-18T02:57:07.638Z,3.55
2023-03-18T02:59:36.254Z,3.36
2023-03-18T03:02:07.331Z,3.38
2023-03-18T03:04:34.377Z,3.28
2023-03-18T03:07:02.353Z,3.28
2023-03-18T03:09:29.968Z,3.29
2023-03-18T03:11:56.975Z,3.29
2023-03-18T03:14:23.918Z,2.96
2023-03-18T03:16:51.018Z,3.33
2023-03-18T03:19:18.163Z,3.02
2023-03-18T03:21:44.913Z,3.38
2023-03-18T03:24:13.847Z,3.21
2023-03-18T03:26:40.752Z,2.75
2023-03-18T03:29:07.702Z,3.11
2023-03-18T03:31:36.948Z,2.88
2023-03-18T03:34:04.304Z,3.20
2023-03-18T03:36:31.450Z,2.75
2023-03-18T03:38:58.604Z,2.87
2023-03-18T03:41:28.524Z,2.79
2023-03-18T03:43:55.469Z,2.72
2023-03-18T03:46:22.549Z,2.93
2023-03-18T03:48:51.566Z,2.86
2023-03-18T03:51:18.814Z,2.67
2023-03-18T03:53:46.675Z,2.61
2023-03-18T03:56:14.076Z,2.83
2023-03-18T03:58:41.428Z,2.94
2023-03-18T04:01:09.159Z,2.88
2023-03-18T04:03:36.188Z,3.07
2023-03-18T04:06:04.893Z,3.13
2023-03-18T04:08:31.961Z,3.12
2023-03-18T04:10:59.499Z,2.52
2023-03-18T04:13:36.474Z,2.81
2023-03-18T04:16:03.984Z,2.53
2023-03-18T04:18:31.567Z,2.40
2023-03-18T04:20:58.357Z,2.50
2023-03-18T04:23:26.070Z,2.35
2023-03-18T04:25:52.966Z,2.57
2023-03-18T04:28:19.643Z,2.52
2023-03-18T04:30:48.913Z,2.21
2023-03-18T04:33:18.636Z,2.43
2023-03-18T04:35:45.834Z,2.57
2023-03-18T04:38:13.105Z,2.32
2023-03-18T04:40:41.136Z,2.72
2023-03-18T04:43:10.538Z,2.67
2023-03-18T04:45:37.643Z,2.40
2023-03-18T04:48:05.865Z,2.56
2023-03-18T04:50:35.605Z,2.44
2023-03-18T04:55:53.846Z,1.85
2023-03-18T04:58:20.957Z,2.35
2023-03-18T05:00:54.845Z,2.30
2023-03-18T05:03:22.212Z,2.42
2023-03-18T05:05:52.457Z,2.73
2023-03-18T05:08:21.969Z,2.58
2023-03-18T05:11:06.136Z,2.45
2023-03-18T05:13:32.940Z,2.20
2023-03-18T05:16:00.045Z,2.69
2023-03-18T05:18:29.712Z,1.97
2023-03-18T05:21:16.234Z,2.95
2023-03-18T05:23:43.376Z,2.83
2023-03-18T05:26:11.720Z,3.15
2023-03-18T05:29:07.351Z,3.12
2023-03-18T05:31:34.155Z,3.22
2023-03-18T05:34:01.126Z,4.02
2023-03-18T05:36:28.044Z,4.26
2023-03-18T05:38:55.161Z,4.50
2023-03-18T05:41:24.344Z,5.17
2023-03-18T05:43:51.336Z,5.40
2023-03-18T05:46:18.241Z,5.72
2023-03-18T05:48:44.955Z,4.98
2023-03-18T05:51:13.008Z,5.77
2023-03-18T05:53:39.727Z,3.98
2023-03-18T05:56:06.583Z,4.93
2023-03-18T05:58:34.986Z,6.01
2023-03-18T06:01:01.792Z,6.19
2023-03-18T06:03:29.750Z,5.75
2023-03-18T06:05:56.950Z,6.32
2023-03-18T06:08:23.864Z,4.99
2023-03-18T06:10:54.293Z,5.97
2023-03-18T06:13:22.197Z,6.70
2023-03-18T06:15:49.026Z,6.73
2023-03-18T06:18:15.915Z,5.36
2023-03-18T06:20:42.995Z,6.27
2023-03-18T06:23:10.199Z,5.04
2023-03-18T06:25:36.911Z,6.08
2023-03-18T06:28:04.074Z,8.95
2023-03-18T06:30:31.005Z,7.33
2023-03-18T06:32:58.380Z,6.68
2023-03-18T06:35:27.865Z,6.10
2023-03-18T06:37:55.046Z,5.61
2023-03-18T06:40:22.406Z,6.76
2023-03-18T06:42:49.387Z,6.10
2023-03-18T06:45:17.236Z,6.39
2023-03-18T06:47:44.863Z,7.38
2023-03-18T06:50:12.257Z,6.62
2023-03-18T06:52:39.230Z,7.70
2023-03-18T06:55:06.819Z,6.78
2023-03-18T06:57:35.187Z,8.20
2023-03-18T07:00:02.629Z,8.25
2023-03-18T07:02:40.021Z,8.98
2023-03-18T07:05:08.222Z,6.77
2023-03-18T07:07:37.770Z,7.28
2023-03-18T07:10:10.838Z,7.66
2023-03-18T07:12:37.745Z,9.14
2023-03-18T07:15:04.646Z,9.33
2023-03-18T07:17:34.399Z,8.53
2023-03-18T07:20:01.310Z,8.67
2023-03-18T07:22:29.273Z,9.32
2023-03-18T07:24:56.230Z,8.12
2023-03-18T07:27:24.046Z,8.63
2023-03-18T07:29:50.946Z,8.58
2023-03-18T07:32:19.418Z,8.88
2023-03-18T07:34:48.141Z,8.99
2023-03-18T07:37:14.983Z,8.38
2023-03-18T07:39:43.958Z,8.44
2023-03-18T07:42:11.786Z,8.24
2023-03-18T07:44:38.605Z,8.73
2023-03-18T07:47:05.761Z,8.96
2023-03-18T07:49:36.657Z,8.61
2023-03-18T07:52:04.080Z,8.81
2023-03-18T07:54:31.207Z,9.08
2023-03-18T07:56:58.339Z,8.55
2023-03-18T07:59:25.313Z,8.89
2023-03-18T08:01:52.589Z,10.05
2023-03-18T08:04:20.101Z,10.61
2023-03-18T08:06:47.585Z,10.12
2023-03-18T08:09:14.690Z,10.15
2023-03-18T08:11:41.824Z,10.25
2023-03-18T08:14:08.780Z,11.00
2023-03-18T08:16:35.979Z,11.01
2023-03-18T08:19:02.826Z,10.60
2023-03-18T08:21:30.488Z,10.84
2023-03-18T08:23:57.490Z,10.48
2023-03-18T08:26:24.873Z,10.14
2023-03-18T08:28:51.770Z,10.70
2023-03-18T08:31:18.974Z,10.03
2023-03-18T08:33:46.670Z,10.81
2023-03-18T08:36:14.241Z,10.12
2023-03-18T08:38:41.161Z,9.87
2023-03-18T08:41:07.988Z,10.37
2023-03-18T08:43:40.246Z,10.67
2023-03-18T08:46:07.477Z,10.51
2023-03-18T08:48:35.246Z,9.13
2023-03-18T08:51:08.465Z,9.70
2023-03-18T08:53:35.955Z,9.75
2023-03-18T08:56:03.830Z,9.82
2023-03-18T08:58:32.056Z,10.63
2023-03-18T09:00:59.633Z,10.51
2023-03-18T09:03:26.506Z,11.61
2023-03-18T09:05:53.971Z,10.74
2023-03-18T09:08:22.271Z,10.26
2023-03-18T09:10:53.665Z,10.12
2023-03-18T09:13:22.055Z,10.38
2023-03-18T09:15:49.409Z,10.81
2023-03-18T09:18:18.448Z,10.82
2023-03-18T09:20:47.483Z,10.44
2023-03-18T09:23:15.829Z,9.72
2023-03-18T09:25:45.305Z,8.75
2023-03-18T09:28:12.845Z,9.06
2023-03-18T09:30:40.522Z,9.06
2023-03-18T09:33:09.370Z,8.87
2023-03-18T09:35:36.833Z,8.68
2023-03-18T09:38:05.369Z,10.21
2023-03-18T09:40:39.549Z,10.46
2023-03-18T09:43:18.594Z,9.85
2023-03-18T09:46:09.709Z,9.94
2023-03-18T09:49:04.492Z,10.58
2023-03-18T09:52:08.919Z,10.85
2023-03-18T09:54:41.589Z,11.86
2023-03-18T09:57:42.889Z,11.33
2023-03-18T10:00:26.508Z,11.66
2023-03-18T10:03:30.303Z,11.51
2023-03-18T10:06:03.544Z,12.17
2023-03-18T10:08:44.636Z,12.80
2023-03-18T10:11:53.574Z,12.22
2023-03-18T10:14:48.232Z,12.61
2023-03-18T10:17:15.760Z,12.62
2023-03-18T10:19:55.514Z,13.19
2023-03-18T10:22:52.167Z,13.20
2023-03-18T10:25:54.829Z,12.95
2023-03-18T10:28:46.843Z,12.80
2023-03-18T10:31:26.639Z,13.57
2023-03-18T10:34:06.862Z,13.43
2023-03-18T10:36:55.577Z,13.89
2023-03-18T10:39:26.201Z,14.61
2023-03-18T10:41:54.894Z,13.19
2023-03-18T10:44:46.323Z,12.76
2023-03-18T10:47:38.299Z,12.77
2023-03-18T10:50:18.194Z,12.33
2023-03-18T10:52:51.261Z,12.34
2023-03-18T10:55:22.890Z,12.81
2023-03-18T10:57:52.204Z,12.85
2023-03-18T11:00:31.229Z,12.37
2023-03-18T11:02:59.212Z,12.38
2023-03-18T11:05:34.485Z,12.22
2023-03-18T11:08:04.912Z,12.39
2023-03-18T11:10:44.112Z,12.02
2023-03-18T11:13:17.152Z,12.45
2023-03-18T11:15:51.821Z,12.28
2023-03-18T11:18:26.230Z,12.99
2023-03-18T11:21:01.933Z,12.83
2023-03-18T11:23:48.726Z,13.43
2023-03-18T11:26:23.171Z,14.01
2023-03-18T11:28:54.754Z,14.22
2023-03-18T11:31:23.233Z,14.30
2023-03-18T11:33:50.119Z,14.08
2023-03-18T11:36:24.257Z,13.21
2023-03-18T11:39:17.522Z,13.43
2023-03-18T11:41:44.339Z,12.77
2023-03-18T11:44:19.518Z,12.69
2023-03-18T11:46:55.013Z,13.18
2023-03-18T11:49:26.294Z,13.48
2023-03-18T11:52:43.959Z,13.31
2023-03-18T11:55:30.124Z,12.93
2023-03-18T11:58:15.834Z,13.27
2023-03-18T12:00:50.572Z,13.50
2023-03-18T12:03:54.590Z,13.80
2023-03-18T12:06:26.556Z,13.72
2023-03-18T12:09:09.784Z,14.22
2023-03-18T12:12:01.495Z,14.48
2023-03-18T12:14:36.799Z,13.74
2023-03-18T12:17:54.290Z,13.20
2023-03-18T12:20:36.390Z,12.68
2023-03-18T12:23:21.376Z,12.62
2023-03-18T12:26:00.718Z,12.71
2023-03-18T12:28:36.722Z,12.53
2023-03-18T12:31:24.933Z,12.24
2023-03-18T12:33:56.685Z,12.87
2023-03-18T12:37:08.467Z,13.65
2023-03-18T12:40:06.748Z,13.69
2023-03-18T12:42:45.301Z,13.58
2023-03-18T12:45:25.688Z,14.14
2023-03-18T12:48:03.913Z,14.00
2023-03-18T12:50:37.551Z,14.46
2023-03-18T12:53:15.476Z,13.89
2023-03-18T12:55:48.246Z,13.33
2023-03-18T12:58:31.177Z,13.37
2023-03-18T13:01:25.147Z,12.98
2023-03-18T13:04:03.232Z,13.27
2023-03-18T13:07:08.206Z,12.67
2023-03-18T13:09:40.205Z,12.54
2023-03-18T13:12:16.325Z,12.53
2023-03-18T13:14:54.776Z,13.05
2023-03-18T13:17:30.780Z,13.67
2023-03-18T13:20:00.713Z,13.66
2023-03-18T13:22:36.800Z,13.53
2023-03-18T13:25:28.376Z,12.78
2023-03-18T13:28:31.244Z,12.46
2023-03-18T13:31:14.718Z,12.63
2023-03-18T13:33:53.672Z,13.13
2023-03-18T13:36:52.367Z,13.48
2023-03-18T13:39:25.493Z,13.27
2023-03-18T13:42:03.701Z,12.71
2023-03-18T13:44:54.659Z,13.34
2023-03-18T13:47:39.235Z,13.55
2023-03-18T13:50:20.293Z,13.88
2023-03-18T13:52:50.179Z,13.55
2023-03-18T13:55:44.663Z,13.41
2023-03-18T13:58:23.922Z,13.55
2023-03-18T14:00:57.397Z,13.41
2023-03-18T14:03:42.944Z,13.86
2023-03-18T14:06:10.682Z,13.91
2023-03-18T14:08:46.558Z,13.21
2023-03-18T14:11:23.196Z,13.37
2023-03-18T14:13:52.726Z,13.26
2023-03-18T14:16:45.642Z,12.61
2023-03-18T14:22:38.124Z,12.24
2023-03-18T14:25:18.865Z,12.02
2023-03-18T14:27:55.219Z,11.85
2023-03-18T14:30:44.518Z,12.23
2023-03-18T14:33:23.016Z,11.78
2023-03-18T14:36:06.807Z,11.80
2023-03-18T14:38:43.407Z,12.03
2023-03-18T14:41:32.883Z,12.00
2023-03-18T14:44:13.933Z,11.63
2023-03-18T14:46:44.857Z,11.91
2023-03-18T14:49:33.210Z,11.86
2023-03-18T14:52:03.968Z,11.71
2023-03-18T14:54:37.387Z,12.05
2023-03-18T14:57:09.404Z,11.69
2023-03-18T14:59:36.475Z,11.58
2023-03-18T15:02:14.559Z,11.59
2023-03-18T15:04:54.523Z,11.92
2023-03-18T15:07:28.451Z,12.21
2023-03-18T15:09:57.032Z,11.93
2023-03-18T15:12:30.634Z,12.25
2023-03-18T15:14:57.283Z,11.94
2023-03-18T15:17:27.616Z,11.88
2023-03-18T15:20:00.055Z,12.17
2023-03-18T15:22:31.394Z,12.20
2023-03-18T15:25:02.722Z,12.03
2023-03-18T15:27:39.664Z,12.13
2023-03-18T15:30:11.457Z,12.22
2023-03-18T15:32:49.875Z,12.15
2023-03-18T15:35:21.873Z,11.86
2023-03-18T15:38:12.507Z,11.94
2023-03-18T15:40:45.090Z,11.83
2023-03-18T15:43:12.042Z,11.96
2023-03-18T15:45:47.461Z,11.56
2023-03-18T15:48:38.584Z,11.48
2023-03-18T15:51:11.058Z,11.48
2023-03-18T15:53:47.817Z,11.34
2023-03-18T15:56:35.778Z,11.34
2023-03-18T15:59:14.750Z,11.05
2023-03-18T16:01:43.062Z,10.96
2023-03-18T16:04:14.855Z,10.96
2023-03-18T16:06:41.710Z,11.01
2023-03-18T16:09:22.204Z,10.86
2023-03-18T16:11:53.464Z,10.64
2023-03-18T16:14:24.178Z,10.64
2023-03-18T16:16:51.806Z,10.53
2023-03-18T16:19:35.078Z,10.51
2023-03-18T16:22:11.115Z,10.38
2023-03-18T16:24:50.115Z,10.47
2023-03-18T16:27:31.974Z,10.20
2023-03-18T16:29:59.431Z,10.08
2023-03-18T16:32:31.421Z,9.94
2023-03-18T16:34:59.749Z,10.00
2023-03-18T16:37:27.952Z,10.00
2023-03-18T16:39:56.014Z,10.12
2023-03-18T16:42:25.107Z,9.94
2023-03-18T16:44:53.183Z,9.93
2023-03-18T16:47:22.924Z,9.83
2023-03-18T16:49:53.474Z,9.79
2023-03-18T16:52:30.688Z,9.98
2023-03-18T16:54:58.472Z,9.65
2023-03-18T16:57:25.816Z,9.73
2023-03-18T16:59:56.976Z,10.25
2023-03-18T17:02:36.388Z,10.17
2023-03-18T17:05:03.675Z,10.16
2023-03-18T17:07:37.034Z,10.09
2023-03-18T17:10:04.445Z,9.93
2023-03-18T17:12:31.338Z,9.98
2023-03-18T17:15:02.344Z,10.01
2023-03-18T17:17:35.571Z,9.63
2023-03-18T17:20:03.561Z,9.64
2023-03-18T17:22:32.674Z,9.41
2023-03-18T17:25:01.944Z,9.16
2023-03-18T17:27:46.882Z,9.17
2023-03-18T17:30:23.220Z,9.47
2023-03-18T17:32:50.732Z,9.31
2023-03-18T17:35:20.578Z,9.30
2023-03-18T17:37:48.229Z,9.23
2023-03-18T17:40:20.245Z,8.93
2023-03-18T17:42:48.676Z,9.14
2023-03-18T17:45:29.710Z,9.07
2023-03-18T17:48:37.934Z,10.17
2023-03-18T17:51:19.479Z,9.73
2023-03-18T17:54:08.255Z,8.21
2023-03-18T17:56:38.194Z,8.01
2023-03-18T17:59:06.471Z,7.84
2023-03-18T18:01:33.564Z,7.77
2023-03-18T18:04:06.708Z,7.89
2023-03-18T18:06:34.072Z,8.34
2023-03-18T18:09:04.636Z,7.87
2023-03-18T18:11:38.422Z,7.40
2023-03-18T18:14:26.856Z,7.53
2023-03-18T18:16:56.231Z,7.88
2023-03-18T18:19:23.347Z,7.51
2023-03-18T18:21:50.921Z,7.40
2023-03-18T18:24:25.336Z,7.27
2023-03-18T18:26:52.212Z,7.38
2023-03-18T18:29:24.788Z,7.30
2023-03-18T18:31:52.985Z,7.09
2023-03-18T18:34:21.405Z,7.08
2023-03-18T18:36:49.856Z,7.02
2023-03-18T18:39:17.266Z,6.70
2023-03-18T18:41:47.947Z,6.78
2023-03-18T18:44:14.924Z,6.66
2023-03-18T18:46:42.371Z,6.71
2023-03-18T18:49:23.743Z,6.65
2023-03-18T18:51:55.517Z,6.49
2023-03-18T18:54:23.354Z,6.42
2023-03-18T18:56:51.015Z,6.25
2023-03-18T18:59:23.472Z,6.55
2023-03-18T19:01:52.104Z,6.28
2023-03-18T19:04:19.096Z,6.35
2023-03-18T19:06:46.824Z,6.21
2023-03-18T19:09:31.786Z,6.09
2023-03-18T19:11:58.941Z,6.30
2023-03-18T19:14:29.516Z,6.09
2023-03-18T19:16:58.841Z,6.18
2023-03-18T19:19:29.349Z,5.91
2023-03-18T19:21:57.646Z,5.69
2023-03-18T19:24:28.913Z,5.98
2023-03-18T19:26:58.911Z,5.91
2023-03-18T19:29:26.696Z,6.00
2023-03-18T19:31:54.780Z,5.82
2023-03-18T19:34:22.794Z,5.90
2023-03-18T19:36:53.170Z,5.84
2023-03-18T19:39:22.745Z,5.81
2023-03-18T19:41:49.878Z,5.94
2023-03-18T19:44:22.320Z,6.13
2023-03-18T19:46:52.647Z,6.13
2023-03-18T19:49:36.566Z,6.22
2023-03-18T19:52:25.747Z,6.18
2023-03-18T19:54:53.555Z,6.27
2023-03-18T19:57:27.272Z,5.97
2023-03-18T20:02:41.020Z,5.58
2023-03-18T20:05:17.290Z,5.50
2023-03-18T20:07:44.135Z,5.65
2023-03-18T20:10:12.358Z,5.41
2023-03-18T20:12:44.590Z,5.23
2023-03-18T20:15:31.573Z,5.14
2023-03-18T20:18:01.743Z,5.37
2023-03-18T20:20:32.881Z,5.29
2023-03-18T20:23:12.772Z,5.30
2023-03-18T20:25:43.735Z,5.39
2023-03-18T20:28:19.166Z,5.18
2023-03-18T20:30:47.294Z,5.51
2023-03-18T20:33:14.483Z,5.13
2023-03-18T20:35:44.373Z,5.05
2023-03-18T20:38:22.470Z,4.94
2023-03-18T20:40:50.009Z,5.00
2023-03-18T20:43:18.573Z,5.02
2023-03-18T20:45:45.697Z,5.20
2023-03-18T20:48:13.124Z,5.35
2023-03-18T20:50:41.078Z,5.14
2023-03-18T20:53:19.069Z,5.27
2023-03-18T20:55:49.619Z,5.34
2023-03-18T20:58:22.287Z,5.40
2023-03-18T21:00:49.678Z,5.11
2023-03-18T21:03:31.201Z,5.11
2023-03-18T21:06:00.446Z,4.60
2023-03-18T21:08:28.384Z,4.21
2023-03-18T21:10:59.024Z,4.10
2023-03-18T21:13:38.238Z,4.30
2023-03-18T21:16:08.232Z,4.26
2023-03-18T21:18:35.782Z,4.31
2023-03-18T21:21:03.094Z,4.29
2023-03-18T21:23:34.512Z,4.26
2023-03-18T21:26:02.240Z,4.22
2023-03-18T21:28:30.188Z,4.41
2023-03-18T21:30:58.735Z,4.36
2023-03-18T21:33:27.406Z,4.30
2023-03-18T21:35:58.871Z,4.39
2023-03-18T21:38:35.140Z,4.54
2023-03-18T21:41:02.284Z,5.05
2023-03-18T21:43:37.354Z,4.90
2023-03-18T21:46:12.768Z,5.12
2023-03-18T21:48:52.342Z,4.56
2023-03-18T21:51:35.479Z,4.52
2023-03-18T21:54:05.552Z,4.51
2023-03-18T21:56:32.646Z,4.42
2023-03-18T21:58:59.411Z,4.24
2023-03-18T22:01:31.127Z,4.23
2023-03-18T22:03:58.508Z,4.34
2023-03-18T22:06:25.489Z,4.63
2023-03-18T22:08:52.878Z,4.61
2023-03-18T22:11:22.217Z,4.25
2023-03-18T22:13:49.842Z,4.62
2023-03-18T22:16:19.012Z,4.60
2023-03-18T22:18:47.560Z,4.43
2023-03-18T22:21:26.579Z,4.37
2023-03-18T22:23:54.279Z,4.43
2023-03-18T22:26:21.699Z,4.15
2023-03-18T22:28:50.809Z,4.32
2023-03-18T22:31:23.972Z,4.09
2023-03-18T22:33:51.128Z,4.33
2023-03-18T22:36:19.229Z,3.92
2023-03-18T22:38:47.520Z,3.98
2023-03-18T22:41:19.633Z,3.65
2023-03-18T22:43:46.878Z,4.16
2023-03-18T22:46:13.683Z,3.99
2023-03-18T22:48:41.130Z,3.85
2023-03-18T22:51:08.723Z,4.06
2023-03-18T22:53:41.869Z,4.15
2023-03-18T22:56:19.185Z,3.88
2023-03-18T22:58:46.156Z,3.82
2023-03-18T23:01:19.138Z,3.55
2023-03-18T23:03:48.094Z,3.20
2023-03-18T23:06:20.891Z,3.36
2023-03-18T23:08:48.295Z,3.58
2023-03-18T23:11:16.624Z,3.38
2023-03-18T23:13:49.906Z,3.50
2023-03-18T23:16:23.324Z,2.84
2023-03-18T23:18:50.917Z,3.31
2023-03-18T23:21:20.619Z,3.31
2023-03-18T23:23:47.897Z,3.57
2023-03-18T23:26:18.947Z,3.12
2023-03-18T23:28:47.014Z,3.20
2023-03-18T23:31:16.094Z,3.24
2023-03-18T23:33:43.349Z,3.25
2023-03-18T23:36:10.890Z,3.34
2023-03-18T23:38:38.263Z,2.87
2023-03-18T23:41:06.181Z,2.52
2023-03-18T23:43:33.041Z,3.02
2023-03-18T23:46:00.375Z,3.35
2023-03-18T23:48:27.340Z,3.42
2023-03-18T23:50:54.144Z,3.28
2023-03-18T23:53:22.884Z,3.33
2023-03-18T23:55:50.042Z,2.87
2023-03-18T23:58:17.165Z,2.87
